createdAt,value
2024-04-15T00:00:36.975Z,199.40
2024-04-15T00:01:37.027Z,198.31
2024-04-15T00:02:37.156Z,197.32
2024-04-15T00:03:37.172Z,197.67
2024-04-15T00:04:37.241Z,197.42
2024-04-15T00:05:37.310Z,196.42
2024-04-15T00:06:37.405Z,196.22
2024-04-15T00:07:37.455Z,197.25
2024-04-15T00:08:37.535Z,197.62
2024-04-15T00:09:37.603Z,198.10
2024-04-15T00:10:37.713Z,198.78
2024-04-15T00:11:37.780Z,195.61
2024-04-15T00:12:37.823Z,197.33
2024-04-15T00:13:38.099Z,197.59
2024-04-15T00:14:38.080Z,197.45
2024-04-15T00:15:38.135Z,197.39
2024-04-15T00:16:38.262Z,197.31
2024-04-15T00:17:38.298Z,197.47
2024-04-15T00:18:38.336Z,196.55
2024-04-15T00:19:38.359Z,197.02
2024-04-15T00:20:38.450Z,195.91
2024-04-15T00:21:38.562Z,198.00
2024-04-15T00:22:38.619Z,198.26
2024-04-15T00:23:38.708Z,197.35
2024-04-15T00:24:38.800Z,198.41
2024-04-15T00:25:38.840Z,197.35
2024-04-15T00:26:38.935Z,198.52
2024-04-15T00:27:39.519Z,195.91
2024-04-15T00:28:39.041Z,196.34
2024-04-15T00:29:39.122Z,196.41
2024-04-15T00:30:39.226Z,197.99
2024-04-15T00:31:39.279Z,197.99
2024-04-15T00:32:39.420Z,197.73
2024-04-15T00:33:39.562Z,196.82
2024-04-15T00:34:39.509Z,197.96
2024-04-15T00:35:39.537Z,197.91
2024-04-15T00:36:39.651Z,196.51
2024-04-15T00:37:39.691Z,196.93
2024-04-15T00:38:39.773Z,196.68
2024-04-15T00:39:39.875Z,197.60
2024-04-15T00:40:39.907Z,197.06
2024-04-15T00:41:40.001Z,198.32
2024-04-15T00:42:40.133Z,196.71
2024-04-15T00:43:40.135Z,197.88
2024-04-15T00:44:40.231Z,197.27
2024-04-15T00:45:40.320Z,196.98
2024-04-15T00:46:40.383Z,197.86
2024-04-15T00:47:40.482Z,195.45
2024-04-15T00:48:40.557Z,195.62
2024-04-15T00:49:40.565Z,196.62
2024-04-15T00:50:40.642Z,197.79
2024-04-15T00:51:40.775Z,194.43
2024-04-15T00:52:40.783Z,195.54
2024-04-15T00:53:40.844Z,195.57
2024-04-15T00:54:40.970Z,195.05
2024-04-15T00:55:41.006Z,195.63
2024-04-15T00:56:41.066Z,195.67
2024-04-15T00:57:41.223Z,193.90
2024-04-15T00:58:41.231Z,193.85
2024-04-15T00:59:41.279Z,194.32
2024-04-15T01:00:41.593Z,193.89
2024-04-15T01:01:41.544Z,194.00
2024-04-15T01:02:41.529Z,192.40
2024-04-15T01:03:41.656Z,193.93
2024-04-15T01:04:41.701Z,194.57
2024-04-15T01:05:41.729Z,193.86
2024-04-15T01:06:41.786Z,192.95
2024-04-15T01:07:41.860Z,193.27
2024-04-15T01:08:41.948Z,193.49
2024-04-15T01:09:42.025Z,192.27
2024-04-15T01:10:51.410Z,192.64
2024-04-15T01:11:43.137Z,192.74
2024-04-15T01:12:42.083Z,192.84
2024-04-15T01:13:42.093Z,192.88
2024-04-15T01:14:42.092Z,193.27
2024-04-15T01:15:42.121Z,193.24
2024-04-15T01:16:42.129Z,192.73
2024-04-15T01:17:42.154Z,192.09
2024-04-15T01:18:42.146Z,192.54
2024-04-15T01:19:42.084Z,191.98
2024-04-15T01:20:42.092Z,192.27
2024-04-15T01:21:42.115Z,191.58
2024-04-15T01:22:42.182Z,191.09
2024-04-15T01:23:42.261Z,191.79
2024-04-15T01:24:42.327Z,191.11
2024-04-15T01:25:42.398Z,191.46
2024-04-15T01:26:42.474Z,192.68
2024-04-15T01:27:42.560Z,191.02
2024-04-15T01:28:42.651Z,190.55
2024-04-15T01:29:42.681Z,191.42
2024-04-15T01:30:42.799Z,189.94
2024-04-15T01:31:42.889Z,189.46
2024-04-15T01:32:42.970Z,190.29
2024-04-15T01:33:43.034Z,189.70
2024-04-15T01:34:43.078Z,189.52
2024-04-15T01:35:43.128Z,190.34
2024-04-15T01:36:43.208Z,190.23
2024-04-15T01:37:43.292Z,189.68
2024-04-15T01:38:43.367Z,189.01
2024-04-15T01:39:43.448Z,188.92
2024-04-15T01:40:43.488Z,189.87
2024-04-15T01:41:43.574Z,189.02
2024-04-15T01:42:43.674Z,188.46
2024-04-15T01:43:43.670Z,188.79
2024-04-15T01:44:43.771Z,187.23
2024-04-15T01:45:43.856Z,186.10
2024-04-15T01:46:43.911Z,186.29
2024-04-15T01:47:44.027Z,187.49
2024-04-15T01:48:44.047Z,184.98
2024-04-15T01:49:44.133Z,183.78
2024-04-15T01:50:44.185Z,183.38
2024-04-15T01:51:44.275Z,184.33
2024-04-15T01:52:44.377Z,184.57
2024-04-15T01:53:44.397Z,185.34
2024-04-15T01:54:44.459Z,184.63
2024-04-15T01:55:44.561Z,182.84
2024-04-15T01:56:44.632Z,183.42
2024-04-15T01:57:44.728Z,183.64
2024-04-15T01:58:44.825Z,184.72
2024-04-15T01:59:45.037Z,185.37
2024-04-15T02:00:45.347Z,185.45
2024-04-15T02:01:45.237Z,184.44
2024-04-15T02:02:45.222Z,182.80
2024-04-15T02:03:45.293Z,183.30
2024-04-15T02:04:45.386Z,182.97
2024-04-15T02:05:45.368Z,182.43
2024-04-15T02:06:45.469Z,184.10
2024-04-15T02:07:45.519Z,181.18
2024-04-15T02:08:45.566Z,181.17
2024-04-15T02:09:45.720Z,181.02
2024-04-15T02:10:45.850Z,180.07
2024-04-15T02:11:45.823Z,181.52
2024-04-15T02:12:45.905Z,181.00
2024-04-15T02:13:45.964Z,181.08
2024-04-15T02:14:46.043Z,180.28
2024-04-15T02:15:46.144Z,180.46
2024-04-15T02:16:46.184Z,179.17
2024-04-15T02:17:46.359Z,178.40
2024-04-15T02:18:46.365Z,178.34
2024-04-15T02:19:46.391Z,178.52
2024-04-15T02:20:46.439Z,177.97
2024-04-15T02:21:46.594Z,178.49
2024-04-15T02:22:46.592Z,179.20
2024-04-15T02:23:46.690Z,177.99
2024-04-15T02:24:46.734Z,176.70
2024-04-15T02:25:46.801Z,176.50
2024-04-15T02:26:46.888Z,177.00
2024-04-15T02:27:46.985Z,176.12
2024-04-15T02:28:47.043Z,176.16
2024-04-15T02:29:47.113Z,176.52
2024-04-15T02:30:47.174Z,175.80
2024-04-15T02:31:47.291Z,175.38
2024-04-15T02:32:47.326Z,176.22
2024-04-15T02:33:47.375Z,175.91
2024-04-15T02:34:47.526Z,174.18
2024-04-15T02:35:47.520Z,174.55
2024-04-15T02:36:47.620Z,174.84
2024-04-15T02:37:47.675Z,175.44
2024-04-15T02:38:47.819Z,176.12
2024-04-15T02:39:47.807Z,176.59
2024-04-15T02:40:47.869Z,174.82
2024-04-15T02:41:47.905Z,174.57
2024-04-15T02:42:48.040Z,174.88
2024-04-15T02:43:48.095Z,177.01
2024-04-15T02:44:48.166Z,177.99
2024-04-15T02:45:48.263Z,176.38
2024-04-15T02:46:48.283Z,175.61
2024-04-15T02:47:48.460Z,177.54
2024-04-15T02:48:48.513Z,177.30
2024-04-15T02:49:48.526Z,175.97
2024-04-15T02:50:48.587Z,173.86
2024-04-15T02:51:48.678Z,174.67
2024-04-15T02:52:48.725Z,176.47
2024-04-15T02:53:48.831Z,174.90
2024-04-15T02:54:48.878Z,174.79
2024-04-15T02:55:48.964Z,173.54
2024-04-15T02:56:49.026Z,173.61
2024-04-15T02:57:49.179Z,173.27
2024-04-15T02:58:49.165Z,173.14
2024-04-15T02:59:49.236Z,174.23
2024-04-15T03:00:49.466Z,172.93
2024-04-15T03:01:49.441Z,171.45
2024-04-15T03:02:49.500Z,173.07
2024-04-15T03:03:49.550Z,170.60
2024-04-15T03:04:49.747Z,172.78
2024-04-15T03:05:49.680Z,172.50
2024-04-15T03:06:49.834Z,173.98
2024-04-15T03:07:49.842Z,173.02
2024-04-15T03:08:49.891Z,171.72
2024-04-15T03:09:50.066Z,170.81
2024-04-15T03:10:50.004Z,173.14
2024-04-15T03:11:50.116Z,171.71
2024-04-15T03:12:50.222Z,169.50
2024-04-15T03:13:50.244Z,170.32
2024-04-15T03:14:50.341Z,171.00
2024-04-15T03:15:50.418Z,170.93
2024-04-15T03:16:50.482Z,171.10
2024-04-15T03:17:50.619Z,169.63
2024-04-15T03:18:50.664Z,168.77
2024-04-15T03:19:50.660Z,166.90
2024-04-15T03:20:50.749Z,168.64
2024-04-15T03:21:50.821Z,166.85
2024-04-15T03:22:50.935Z,167.62
2024-04-15T03:23:50.964Z,166.63
2024-04-15T03:24:51.044Z,167.23
2024-04-15T03:25:51.076Z,165.75
2024-04-15T03:26:51.146Z,167.28
2024-04-15T03:27:51.277Z,167.56
2024-04-15T03:28:51.299Z,167.46
2024-04-15T03:29:51.351Z,164.89
2024-04-15T03:30:53.932Z,166.55
2024-04-15T03:31:51.439Z,166.93
2024-04-15T03:32:51.485Z,166.42
2024-04-15T03:33:51.454Z,165.55
2024-04-15T03:34:51.401Z,166.49
2024-04-15T03:35:51.421Z,163.50
2024-04-15T03:36:51.425Z,166.37
2024-04-15T03:37:51.442Z,162.59
2024-04-15T03:38:51.497Z,162.72
2024-04-15T03:39:51.459Z,163.01
2024-04-15T03:40:51.445Z,163.92
2024-04-15T03:41:51.466Z,164.60
2024-04-15T03:42:51.459Z,163.04
2024-04-15T03:43:51.441Z,164.88
2024-04-15T03:44:51.449Z,165.08
2024-04-15T03:45:51.487Z,165.12
2024-04-15T03:46:51.517Z,166.60
2024-04-15T03:47:51.477Z,164.14
2024-04-15T03:48:51.462Z,165.97
2024-04-15T03:49:51.465Z,165.30
2024-04-15T03:50:51.457Z,166.73
2024-04-15T03:51:51.545Z,164.09
2024-04-15T03:52:51.459Z,166.47
2024-04-15T03:53:51.444Z,166.01
2024-04-15T03:54:51.475Z,166.66
2024-04-15T03:55:51.463Z,165.26
2024-04-15T03:56:51.457Z,165.31
2024-04-15T03:57:51.452Z,166.13
2024-04-15T03:58:51.478Z,166.11
2024-04-15T03:59:51.468Z,164.54
2024-04-15T04:00:51.598Z,165.89
2024-04-15T04:01:51.608Z,166.45
2024-04-15T04:02:53.707Z,165.32
2024-04-15T04:03:51.752Z,167.38
2024-04-15T04:04:51.855Z,168.19
2024-04-15T04:05:55.160Z,169.38
2024-04-15T04:06:52.793Z,169.43
2024-04-15T04:07:51.779Z,169.27
2024-04-15T04:08:51.787Z,169.13
2024-04-15T04:09:51.792Z,167.89
2024-04-15T04:10:51.862Z,168.71
2024-04-15T04:11:51.773Z,166.86
2024-04-15T04:12:51.802Z,167.41
2024-04-15T04:13:51.798Z,166.61
2024-04-15T04:14:51.770Z,168.93
2024-04-15T04:15:51.809Z,169.03
2024-04-15T04:16:51.790Z,168.09
2024-04-15T04:17:59.189Z,50.00
2024-04-15T04:18:59.122Z,50.00
2024-04-15T04:19:59.110Z,50.00
2024-04-15T04:20:59.147Z,50.00
2024-04-15T04:21:59.167Z,50.00
2024-04-15T04:23:57.224Z,50.00
2024-04-15T04:24:57.253Z,50.00
2024-04-15T04:25:57.222Z,50.00
2024-04-15T04:26:57.228Z,50.00
2024-04-15T04:27:57.242Z,50.00
2024-04-15T04:28:57.248Z,50.00
2024-04-15T04:29:57.259Z,50.67
2024-04-15T04:31:04.456Z,50.00
2024-04-15T04:32:04.445Z,50.00
2024-04-15T04:33:04.609Z,50.00
2024-04-15T04:34:04.440Z,50.00
2024-04-15T04:35:04.417Z,50.00
2024-04-15T04:36:04.427Z,50.62
2024-04-15T04:37:04.453Z,49.77
2024-04-15T04:38:04.400Z,52.89
2024-04-15T04:39:04.419Z,52.41
2024-04-15T04:40:04.501Z,52.87
2024-04-15T04:41:04.409Z,51.90
2024-04-15T04:42:04.432Z,52.97
2024-04-15T04:43:04.475Z,54.37
2024-04-15T04:44:04.421Z,53.11
2024-04-15T04:45:04.434Z,52.77
2024-04-15T04:46:04.466Z,55.00
2024-04-15T04:47:04.553Z,57.17
2024-04-15T04:48:04.559Z,54.43
2024-04-15T04:49:04.516Z,55.77
2024-04-15T04:50:04.488Z,55.61
2024-04-15T04:51:04.498Z,54.21
2024-04-15T04:52:04.544Z,58.17
2024-04-15T04:53:04.519Z,57.97
2024-04-15T04:54:04.487Z,56.22
2024-04-15T04:55:04.505Z,57.33
2024-04-15T04:56:04.486Z,58.06
2024-04-15T04:57:04.503Z,57.02
2024-04-15T04:58:04.507Z,59.76
2024-04-15T04:59:04.488Z,61.20
2024-04-15T05:00:04.490Z,60.38
2024-04-15T05:01:27.081Z,61.38
2024-04-15T05:02:06.856Z,61.80
2024-04-15T05:03:04.569Z,62.00
2024-04-15T05:04:04.568Z,63.50
2024-04-15T05:05:04.566Z,65.15
2024-04-15T05:06:04.564Z,66.03
2024-04-15T05:07:04.584Z,68.36
2024-04-15T05:08:04.550Z,68.08
2024-04-15T05:09:04.555Z,66.22
2024-04-15T05:10:04.600Z,67.38
2024-04-15T05:11:04.540Z,64.23
2024-04-15T05:12:04.564Z,64.03
2024-04-15T05:13:04.581Z,64.59
2024-04-15T05:14:04.553Z,66.70
2024-04-15T05:15:04.573Z,64.87
2024-04-15T05:16:04.632Z,65.50
2024-04-15T05:17:04.544Z,66.51
2024-04-15T05:18:04.616Z,66.98
2024-04-15T05:19:04.621Z,66.73
2024-04-15T05:20:04.560Z,65.20
2024-04-15T05:21:04.565Z,66.97
2024-04-15T05:22:04.644Z,65.42
2024-04-15T05:23:04.580Z,66.76
2024-04-15T05:24:04.561Z,67.46
2024-04-15T05:25:04.662Z,67.54
2024-04-15T05:26:04.619Z,67.23
2024-04-15T05:27:04.648Z,66.63
2024-04-15T05:28:04.655Z,67.58
2024-04-15T05:29:04.630Z,69.76
2024-04-15T05:30:04.644Z,67.78
2024-04-15T05:31:04.763Z,68.58
2024-04-15T05:32:04.723Z,68.66
2024-04-15T05:33:04.717Z,67.32
2024-04-15T05:34:05.101Z,68.15
2024-04-15T05:35:04.662Z,69.80
2024-04-15T05:36:04.660Z,72.96
2024-04-15T05:37:04.707Z,73.07
2024-04-15T05:38:04.635Z,76.08
2024-04-15T05:39:05.077Z,73.10
2024-04-15T05:40:04.637Z,69.83
2024-04-15T05:41:04.642Z,72.17
2024-04-15T05:42:04.639Z,65.28
2024-04-15T05:43:04.668Z,68.09
2024-04-15T05:44:06.004Z,75.62
2024-04-15T05:45:04.703Z,81.96
2024-04-15T05:46:27.381Z,87.90
2024-04-15T05:47:04.860Z,88.39
2024-04-15T05:48:04.877Z,90.06
2024-04-15T05:49:05.103Z,94.73
2024-04-15T05:50:04.806Z,100.60
2024-04-15T05:51:04.819Z,111.22
2024-04-15T05:52:04.911Z,118.87
2024-04-15T05:53:04.889Z,123.77
2024-04-15T05:54:05.112Z,128.39
2024-04-15T05:55:04.892Z,131.60
2024-04-15T05:56:04.863Z,135.61
2024-04-15T05:57:04.864Z,135.90
2024-04-15T05:58:04.959Z,135.15
2024-04-15T05:59:05.159Z,134.88
2024-04-15T06:00:04.893Z,132.64
2024-04-15T06:01:04.976Z,132.17
2024-04-15T06:02:05.061Z,132.77
2024-04-15T06:03:04.916Z,133.02
2024-04-15T06:04:04.960Z,132.80
2024-04-15T06:05:04.904Z,131.10
2024-04-15T06:06:04.914Z,134.65
2024-04-15T06:07:04.921Z,132.42
2024-04-15T06:08:06.827Z,134.82
2024-04-15T06:09:05.111Z,137.09
2024-04-15T06:10:04.938Z,138.91
2024-04-15T06:11:04.999Z,141.35
2024-04-15T06:12:04.887Z,140.69
2024-04-15T06:13:04.974Z,140.55
2024-04-15T06:14:04.931Z,139.33
2024-04-15T06:15:04.888Z,137.79
2024-04-15T06:16:05.126Z,136.84
2024-04-15T06:17:04.894Z,136.12
2024-04-15T06:18:04.910Z,135.98
2024-04-15T06:19:05.162Z,137.23
2024-04-15T06:20:04.928Z,135.18
2024-04-15T06:21:04.885Z,135.70
2024-04-15T06:22:04.970Z,136.81
2024-04-15T06:23:04.916Z,134.17
2024-04-15T06:24:04.922Z,135.82
2024-04-15T06:25:04.940Z,136.36
2024-04-15T06:26:04.893Z,134.82
2024-04-15T06:27:04.903Z,135.30
2024-04-15T06:28:04.995Z,131.20
2024-04-15T06:29:04.959Z,131.71
2024-04-15T06:30:04.924Z,126.83
2024-04-15T06:31:05.026Z,126.39
2024-04-15T06:32:04.999Z,123.77
2024-04-15T06:33:05.027Z,120.96
2024-04-15T06:34:04.991Z,117.09
2024-04-15T06:35:04.950Z,114.65
2024-04-15T06:36:04.972Z,113.99
2024-04-15T06:37:05.009Z,114.82
2024-04-15T06:38:04.966Z,119.68
2024-04-15T06:39:05.111Z,121.58
2024-04-15T06:40:05.018Z,124.96
2024-04-15T06:41:04.968Z,125.80
2024-04-15T06:42:04.989Z,129.48
2024-04-15T06:43:07.561Z,131.00
2024-04-15T06:44:05.120Z,136.41
2024-04-15T06:45:05.021Z,134.50
2024-04-15T06:46:06.664Z,133.88
2024-04-15T06:47:05.104Z,133.97
2024-04-15T06:48:05.047Z,133.45
2024-04-15T06:49:05.138Z,131.07
2024-04-15T06:50:04.968Z,128.98
2024-04-15T06:51:04.960Z,130.84
2024-04-15T06:52:04.994Z,131.67
2024-04-15T06:53:04.980Z,131.98
2024-04-15T06:54:05.555Z,131.90
2024-04-15T06:55:05.045Z,134.53
2024-04-15T06:56:04.963Z,132.69
2024-04-15T06:57:05.058Z,132.57
2024-04-15T06:58:05.028Z,131.34
2024-04-15T06:59:05.009Z,134.64
2024-04-15T07:00:05.009Z,132.73
2024-04-15T07:01:05.098Z,133.83
2024-04-15T07:02:05.050Z,134.82
2024-04-15T07:03:05.007Z,138.38
2024-04-15T07:04:05.098Z,142.03
2024-04-15T07:05:05.200Z,144.38
2024-04-15T07:06:05.136Z,148.15
2024-04-15T07:07:05.232Z,148.36
2024-04-15T07:08:05.302Z,150.19
2024-04-15T07:09:05.362Z,153.29
2024-04-15T07:10:05.751Z,152.64
2024-04-15T07:11:07.208Z,151.34
2024-04-15T07:12:05.553Z,154.81
2024-04-15T07:13:05.645Z,155.82
2024-04-15T07:14:05.704Z,158.14
2024-04-15T07:15:05.759Z,158.95
2024-04-15T07:16:05.762Z,162.07
2024-04-15T07:17:05.901Z,163.48
2024-04-15T07:18:07.616Z,164.76
2024-04-15T07:19:05.852Z,170.46
2024-04-15T07:20:05.775Z,170.15
2024-04-15T07:21:05.786Z,175.40
2024-04-15T07:22:05.885Z,177.58
2024-04-15T07:23:05.831Z,178.07
2024-04-15T07:24:05.877Z,175.96
2024-04-15T07:25:05.909Z,176.87
2024-04-15T07:26:05.854Z,178.59
2024-04-15T07:27:05.867Z,176.39
2024-04-15T07:28:05.894Z,177.29
2024-04-15T07:29:05.837Z,179.05
2024-04-15T07:30:05.886Z,182.09
2024-04-15T07:31:05.956Z,183.29
2024-04-15T07:32:05.884Z,188.93
2024-04-15T07:33:05.899Z,184.94
2024-04-15T07:34:05.894Z,182.54
2024-04-15T07:35:07.145Z,180.43
2024-04-15T07:36:05.872Z,175.71
2024-04-15T07:37:06.919Z,175.77
2024-04-15T07:38:05.869Z,169.12
2024-04-15T07:39:05.859Z,164.51
2024-04-15T07:40:06.254Z,160.57
2024-04-15T07:41:05.851Z,159.38
2024-04-15T07:42:05.894Z,158.74
2024-04-15T07:43:05.919Z,167.67
2024-04-15T07:44:05.905Z,167.35
2024-04-15T07:45:05.899Z,168.66
2024-04-15T07:46:05.998Z,168.77
2024-04-15T07:47:05.951Z,171.37
2024-04-15T07:48:05.943Z,176.11
2024-04-15T07:49:05.977Z,185.73
2024-04-15T07:50:06.055Z,192.78
2024-04-15T07:51:06.131Z,195.16
2024-04-15T07:52:06.255Z,200.19
2024-04-15T07:53:06.296Z,198.54
2024-04-15T07:54:06.356Z,197.67
2024-04-15T07:55:06.568Z,197.60
2024-04-15T07:56:06.554Z,198.91
2024-04-15T07:57:06.622Z,195.23
2024-04-15T07:58:06.798Z,194.15
2024-04-15T07:59:06.797Z,191.85
2024-04-15T08:00:06.916Z,183.62
2024-04-15T08:01:07.118Z,183.46
2024-04-15T08:02:08.471Z,181.05
2024-04-15T08:03:07.174Z,184.46
2024-04-15T08:04:07.328Z,183.95
2024-04-15T08:05:07.696Z,184.50
2024-04-15T08:06:07.249Z,183.34
2024-04-15T08:07:13.262Z,185.85
2024-04-15T08:08:08.343Z,185.89
2024-04-15T08:09:07.309Z,185.96
2024-04-15T08:10:07.365Z,186.71
2024-04-15T08:11:07.352Z,187.73
2024-04-15T08:12:07.330Z,190.50
2024-04-15T08:13:07.399Z,188.88
2024-04-15T08:14:07.300Z,189.66
2024-04-15T08:15:07.432Z,193.62
2024-04-15T08:16:07.371Z,192.47
2024-04-15T08:17:07.500Z,194.85
2024-04-15T08:18:07.397Z,197.16
2024-04-15T08:19:07.482Z,200.00
2024-04-15T08:20:07.586Z,199.71
2024-04-15T08:21:07.661Z,199.19
2024-04-15T08:22:07.862Z,198.26
2024-04-15T08:23:07.842Z,199.80
2024-04-15T08:24:07.849Z,197.52
2024-04-15T08:25:08.400Z,200.00
2024-04-15T08:26:08.172Z,198.92
2024-04-15T08:27:08.034Z,200.00
2024-04-15T08:28:08.112Z,198.88
2024-04-15T08:29:08.134Z,200.10
2024-04-15T08:30:08.184Z,200.00
2024-04-15T08:31:08.718Z,200.01
2024-04-15T08:32:08.202Z,197.84
2024-04-15T08:33:08.289Z,198.98
2024-04-15T08:34:10.246Z,199.05
2024-04-15T08:35:08.335Z,199.21
2024-04-15T08:36:08.308Z,198.18
2024-04-15T08:37:08.380Z,199.50
2024-04-15T08:38:08.370Z,198.39
2024-04-15T08:39:08.424Z,198.43
2024-04-15T08:40:08.488Z,198.84
2024-04-15T08:41:08.534Z,198.11
2024-04-15T08:42:08.594Z,198.45
2024-04-15T08:43:09.167Z,198.51
2024-04-15T08:44:08.773Z,197.46
2024-04-15T08:45:08.807Z,198.39
2024-04-15T08:46:08.870Z,197.28
2024-04-15T08:47:08.894Z,197.96
2024-04-15T08:48:08.873Z,197.25
2024-04-15T08:49:08.954Z,197.24
2024-04-15T08:50:08.949Z,194.53
2024-04-15T08:51:08.978Z,196.54
2024-04-15T08:52:10.089Z,195.94
2024-04-15T08:53:09.033Z,195.30
2024-04-15T08:54:09.066Z,196.68
2024-04-15T08:55:09.212Z,198.85
2024-04-15T08:56:09.241Z,198.91
2024-04-15T08:57:09.311Z,199.08
2024-04-15T08:58:09.421Z,197.35
2024-04-15T08:59:10.955Z,196.17
2024-04-15T09:00:09.531Z,194.19
2024-04-15T09:01:09.636Z,187.98
2024-04-15T09:02:09.590Z,178.33
2024-04-15T09:03:09.669Z,174.96
2024-04-15T09:04:09.701Z,173.16
2024-04-15T09:05:09.795Z,174.89
2024-04-15T09:06:09.747Z,182.14
2024-04-15T09:07:09.805Z,183.50
2024-04-15T09:08:10.038Z,176.61
2024-04-15T09:09:10.114Z,174.26
2024-04-15T09:10:10.005Z,177.89
2024-04-15T09:11:10.110Z,185.61
2024-04-15T09:12:10.110Z,188.62
2024-04-15T09:13:10.313Z,186.94
2024-04-15T09:14:10.328Z,185.78
2024-04-15T09:15:10.326Z,178.58
2024-04-15T09:16:10.738Z,178.98
2024-04-15T09:17:10.594Z,179.78
2024-04-15T09:18:10.594Z,180.49
2024-04-15T09:19:10.682Z,184.25
2024-04-15T09:20:10.733Z,185.49
2024-04-15T09:21:10.828Z,183.59
2024-04-15T09:22:10.915Z,186.16
2024-04-15T09:23:10.947Z,187.27
2024-04-15T09:24:11.089Z,186.98
2024-04-15T09:25:11.151Z,184.73
2024-04-15T09:26:11.226Z,185.23
2024-04-15T09:27:11.295Z,186.32
2024-04-15T09:28:11.446Z,183.59
2024-04-15T09:29:11.441Z,183.77
2024-04-15T09:30:11.523Z,182.99
2024-04-15T09:31:11.733Z,181.35
2024-04-15T09:32:11.779Z,179.98
2024-04-15T09:33:11.812Z,180.20
2024-04-15T09:34:11.885Z,180.92
2024-04-15T09:35:11.971Z,176.17
2024-04-15T09:36:12.106Z,173.55
2024-04-15T09:37:12.157Z,174.75
2024-04-15T09:38:12.226Z,172.53
2024-04-15T09:39:12.298Z,169.30
2024-04-15T09:40:12.395Z,169.70
2024-04-15T09:41:12.448Z,167.68
2024-04-15T09:42:12.553Z,166.99
2024-04-15T09:43:12.694Z,165.76
2024-04-15T09:44:12.699Z,164.21
2024-04-15T09:45:12.776Z,162.33
2024-04-15T09:46:12.909Z,161.67
2024-04-15T09:47:12.928Z,157.72
2024-04-15T09:48:13.168Z,156.80
2024-04-15T09:49:13.109Z,156.81
2024-04-15T09:50:13.190Z,157.02
2024-04-15T09:51:13.264Z,158.34
2024-04-15T09:52:13.350Z,158.36
2024-04-15T09:53:13.428Z,159.47
2024-04-15T09:54:13.501Z,162.68
2024-04-15T09:55:13.653Z,162.78
2024-04-15T09:56:13.721Z,170.71
2024-04-15T09:57:13.751Z,166.54
2024-04-15T09:58:13.900Z,159.71
2024-04-15T09:59:13.933Z,149.10
2024-04-15T10:00:14.017Z,140.03
2024-04-15T10:01:14.188Z,134.66
2024-04-15T10:02:14.158Z,142.55
2024-04-15T10:03:14.359Z,151.04
2024-04-15T10:04:14.392Z,158.16
2024-04-15T10:05:14.450Z,161.84
2024-04-15T10:06:14.470Z,156.23
2024-04-15T10:07:14.589Z,152.54
2024-04-15T10:08:14.633Z,150.97
2024-04-15T10:09:14.735Z,152.79
2024-04-15T10:10:14.840Z,153.11
2024-04-15T10:11:14.858Z,154.70
2024-04-15T10:12:14.986Z,152.67
2024-04-15T10:13:15.083Z,154.44
2024-04-15T10:14:15.150Z,154.01
2024-04-15T10:15:15.193Z,154.15
2024-04-15T10:16:20.409Z,155.91
2024-04-15T10:17:16.504Z,156.04
2024-04-15T10:18:15.525Z,156.27
2024-04-15T10:19:15.416Z,156.78
2024-04-15T10:20:15.523Z,157.29
2024-04-15T10:21:15.918Z,157.62
2024-04-15T10:22:15.798Z,156.64
2024-04-15T10:23:16.813Z,158.81
2024-04-15T10:24:15.871Z,156.61
2024-04-15T10:25:15.976Z,157.51
2024-04-15T10:26:16.239Z,154.30
2024-04-15T10:27:16.142Z,157.09
2024-04-15T10:28:16.278Z,159.00
2024-04-15T10:29:17.206Z,159.14
2024-04-15T10:30:16.210Z,159.52
2024-04-15T10:31:17.187Z,160.48
2024-04-15T10:32:17.664Z,162.00
2024-04-15T10:33:16.243Z,164.30
2024-04-15T10:34:16.332Z,165.90
2024-04-15T10:35:16.197Z,166.71
2024-04-15T10:36:17.651Z,168.22
2024-04-15T10:37:17.210Z,170.93
2024-04-15T10:38:16.217Z,179.87
2024-04-15T10:39:18.220Z,192.13
2024-04-15T10:40:16.283Z,196.29
2024-04-15T10:41:16.254Z,197.97
2024-04-15T10:42:16.240Z,200.00
2024-04-15T10:43:16.237Z,199.00
2024-04-15T10:44:16.288Z,199.54
2024-04-15T10:45:16.401Z,199.54
2024-04-15T10:46:16.561Z,200.00
2024-04-15T10:47:16.584Z,199.48
2024-04-15T10:48:16.729Z,199.05
2024-04-15T10:49:16.852Z,198.55
2024-04-15T10:50:16.829Z,199.91
2024-04-15T10:51:17.239Z,197.88
2024-04-15T10:52:17.080Z,199.96
2024-04-15T10:53:17.143Z,198.46
2024-04-15T10:54:17.216Z,200.00
2024-04-15T10:55:17.424Z,199.51
2024-04-15T10:56:17.410Z,198.52
2024-04-15T10:57:17.472Z,198.66
2024-04-15T10:58:18.299Z,198.93
2024-04-15T10:59:17.901Z,198.95
2024-04-15T11:00:17.662Z,199.52
2024-04-15T11:01:17.869Z,200.00
2024-04-15T11:02:17.754Z,199.68
2024-04-15T11:03:17.831Z,200.00
2024-04-15T11:04:17.902Z,199.61
2024-04-15T11:05:17.894Z,199.70
2024-04-15T11:06:19.495Z,199.67
2024-04-15T11:07:17.965Z,199.93
2024-04-15T11:08:17.965Z,199.65
2024-04-15T11:09:17.993Z,197.45
2024-04-15T11:10:18.024Z,200.02
2024-04-15T11:11:18.067Z,199.54
2024-04-15T11:12:18.104Z,199.06
2024-04-15T11:13:18.132Z,197.12
2024-04-15T11:14:18.253Z,188.65
2024-04-15T11:15:18.308Z,181.73
2024-04-15T11:16:18.518Z,175.96
2024-04-15T11:17:18.698Z,169.99
2024-04-15T11:18:18.709Z,164.92
2024-04-15T11:19:18.728Z,160.15
2024-04-15T11:20:18.794Z,155.81
2024-04-15T11:21:18.884Z,152.94
2024-04-15T11:22:21.185Z,151.44
2024-04-15T11:23:19.036Z,148.21
2024-04-15T11:24:19.018Z,146.37
2024-04-15T11:25:19.015Z,144.98
2024-04-15T11:26:18.929Z,141.94
2024-04-15T11:27:19.292Z,138.83
2024-04-15T11:28:19.070Z,135.58
2024-04-15T11:29:18.961Z,135.02
2024-04-15T11:30:19.012Z,134.93
2024-04-15T11:31:19.311Z,134.74
2024-04-15T11:32:19.085Z,135.76
2024-04-15T11:33:19.124Z,136.20
2024-04-15T11:34:19.675Z,139.42
2024-04-15T11:35:19.008Z,141.39
2024-04-15T11:36:19.063Z,142.36
2024-04-15T11:37:19.299Z,140.90
2024-04-15T11:38:19.006Z,145.00
2024-04-15T11:39:19.041Z,144.87
2024-04-15T11:40:19.095Z,145.62
2024-04-15T11:41:19.028Z,146.99
2024-04-15T11:42:19.014Z,146.63
2024-04-15T11:43:19.044Z,147.98
2024-04-15T11:44:19.031Z,147.02
2024-04-15T11:45:19.050Z,148.44
2024-04-15T11:46:19.680Z,147.11
2024-04-15T11:47:19.308Z,147.08
2024-04-15T11:48:19.113Z,147.99
2024-04-15T11:49:19.075Z,147.71
2024-04-15T11:50:19.042Z,147.85
2024-04-15T11:51:19.052Z,147.18
2024-04-15T11:52:19.237Z,147.77
2024-04-15T11:53:19.035Z,145.96
2024-04-15T11:54:19.047Z,144.32
2024-04-15T11:55:19.107Z,145.31
2024-04-15T11:56:19.053Z,141.77
2024-04-15T11:57:19.061Z,143.73
2024-04-15T11:58:19.167Z,139.89
2024-04-15T11:59:19.206Z,140.25
2024-04-15T12:00:19.288Z,139.41
2024-04-15T12:01:19.441Z,137.53
2024-04-15T12:02:19.479Z,139.00
2024-04-15T12:03:19.598Z,137.30
2024-04-15T12:04:20.275Z,137.79
2024-04-15T12:05:19.772Z,138.01
2024-04-15T12:06:19.724Z,135.77
2024-04-15T12:07:19.941Z,135.81
2024-04-15T12:08:19.808Z,133.32
2024-04-15T12:09:19.842Z,133.61
2024-04-15T12:10:19.948Z,133.62
2024-04-15T12:11:19.951Z,131.95
2024-04-15T12:12:19.980Z,132.42
2024-04-15T12:13:20.067Z,131.04
2024-04-15T12:14:20.055Z,131.54
2024-04-15T12:15:20.166Z,131.88
2024-04-15T12:16:20.309Z,130.43
2024-04-15T12:17:20.431Z,129.09
2024-04-15T12:18:20.467Z,131.13
2024-04-15T12:19:20.663Z,128.95
2024-04-15T12:20:20.597Z,128.42
2024-04-15T12:21:20.713Z,128.26
2024-04-15T12:22:20.835Z,127.95
2024-04-15T12:23:20.910Z,127.23
2024-04-15T12:24:21.009Z,125.35
2024-04-15T12:25:21.151Z,124.73
2024-04-15T12:26:21.182Z,126.49
2024-04-15T12:27:21.284Z,125.05
2024-04-15T12:28:21.424Z,126.77
2024-04-15T12:29:21.448Z,123.98
2024-04-15T12:30:21.568Z,123.37
2024-04-15T12:31:21.654Z,123.89
2024-04-15T12:32:21.817Z,122.66
2024-04-15T12:33:21.879Z,125.07